Time;durP1;ratioP1;P1;durP2;ratioP2;P2;SDS_P1;SDS_P2;PMS_P1;PMS_P2;Temp;Humidity;BMP_temperature;BMP_pressure;BME280_temperature;BME280_humidity;BME280_pressure;Samples;Min_cycle;Max_cycle;Signal;HPM_P1;HPM_P2
2024/04/19 00:00:28;;;;;;;7.50;5.07;;;3.90;99.90;;;;;;2252441;26;20278;-70
2024/04/19 00:01:30;;;;;;;6.10;5.07;;;3.90;99.90;;;;;;2250963;26;20311;-71
2024/04/19 00:02:31;;;;;;;7.75;5.80;;;3.80;99.90;;;;;;2251125;26;20363;-70
2024/04/19 00:03:31;;;;;;;8.90;5.73;;;3.70;99.90;;;;;;2251496;26;20379;-71
2024/04/19 00:04:32;;;;;;;9.37;6.07;;;3.50;99.90;;;;;;2221289;26;20740;-70
2024/04/19 00:05:33;;;;;;;10.37;6.60;;;3.50;99.90;;;;;;2236801;26;20307;-70
2024/04/19 00:06:34;;;;;;;9.33;6.60;;;3.60;99.90;;;;;;2252234;26;20374;-71
2024/04/19 00:07:34;;;;;;;9.20;6.60;;;3.50;99.90;;;;;;2245102;26;20268;-71
2024/04/19 00:08:36;;;;;;;9.13;6.40;;;3.40;99.90;;;;;;2251880;26;20263;-71
2024/04/19 00:09:36;;;;;;;7.65;5.63;;;3.40;99.90;;;;;;2251490;26;20357;-70
2024/04/19 00:10:37;;;;;;;8.23;5.30;;;3.30;99.90;;;;;;2251966;26;20376;-69
2024/04/19 00:11:38;;;;;;;8.57;5.93;;;3.30;99.90;;;;;;2251185;26;20311;-70
2024/04/19 00:12:38;;;;;;;8.60;5.90;;;3.40;99.90;;;;;;2244387;26;20274;-70
2024/04/19 00:13:39;;;;;;;9.53;7.20;;;3.40;99.90;;;;;;2244523;26;20266;-70
2024/04/19 00:14:40;;;;;;;9.60;7.00;;;3.40;99.90;;;;;;2229052;26;20273;-70
2024/04/19 00:15:44;;;;;;;6.30;5.43;;;3.50;99.90;;;;;;2229164;26;20299;-70
2024/04/19 00:16:44;;;;;;;9.82;6.85;;;3.50;99.90;;;;;;2237272;26;20296;-71
2024/04/19 00:17:45;;;;;;;7.83;6.17;;;3.50;99.90;;;;;;2236463;26;20271;-70
2024/04/19 00:18:46;;;;;;;8.67;6.10;;;3.50;99.90;;;;;;2243242;26;20271;-71
2024/04/19 00:19:47;;;;;;;7.60;5.50;;;3.50;99.90;;;;;;2241977;26;20731;-71
2024/04/19 00:20:48;;;;;;;9.30;5.93;;;3.50;99.90;;;;;;2251346;26;20778;-72
2024/04/19 00:21:49;;;;;;;9.68;6.47;;;3.50;99.90;;;;;;2252590;26;20266;-70
2024/04/19 00:22:49;;;;;;;8.07;5.43;;;3.50;99.90;;;;;;2247302;26;20755;-70
2024/04/19 00:23:50;;;;;;;8.47;6.37;;;3.50;99.90;;;;;;2249126;26;20270;-71
2024/04/19 00:24:51;;;;;;;8.20;6.17;;;3.50;99.90;;;;;;2251041;26;20270;-70
2024/04/19 00:25:53;;;;;;;10.00;6.30;;;3.50;99.90;;;;;;2252630;26;20264;-70
2024/04/19 00:26:54;;;;;;;7.75;6.05;;;3.40;99.90;;;;;;2245464;26;20365;-71
2024/04/19 00:27:55;;;;;;;8.27;5.80;;;3.40;99.90;;;;;;2244393;26;20274;-70
2024/04/19 00:28:55;;;;;;;8.73;5.93;;;3.40;99.90;;;;;;2251624;26;20301;-70
2024/04/19 00:29:56;;;;;;;10.57;6.53;;;3.30;99.90;;;;;;2249692;26;20751;-71
2024/04/19 00:30:57;;;;;;;10.33;6.07;;;3.40;99.90;;;;;;2230162;26;20369;-70
2024/04/19 00:31:57;;;;;;;8.83;5.77;;;3.20;99.90;;;;;;2236292;26;20335;-70
2024/04/19 00:32:58;;;;;;;10.43;6.73;;;3.20;99.90;;;;;;2250590;26;20731;-70
2024/04/19 00:33:59;;;;;;;8.30;6.23;;;3.10;99.90;;;;;;2249697;26;20330;-70
2024/04/19 00:34:59;;;;;;;8.70;5.67;;;3.20;99.90;;;;;;2244433;26;20375;-70
2024/04/19 00:36:00;;;;;;;7.87;5.50;;;3.20;99.90;;;;;;2245904;26;20692;-70
2024/04/19 00:37:01;;;;;;;9.70;6.53;;;3.20;99.90;;;;;;2235082;26;20240;-70
2024/04/19 00:38:02;;;;;;;12.13;7.47;;;3.20;99.90;;;;;;2230823;26;20257;-72
2024/04/19 00:39:03;;;;;;;11.13;7.17;;;3.00;99.90;;;;;;2220859;26;20290;-72
2024/04/19 00:40:04;;;;;;;11.00;7.70;;;3.00;99.90;;;;;;2221654;26;20234;-70
2024/04/19 00:41:05;;;;;;;12.00;8.25;;;2.90;99.90;;;;;;2240963;26;20248;-72
2024/04/19 00:42:06;;;;;;;9.93;7.13;;;3.00;99.90;;;;;;2244651;26;20231;-70
2024/04/19 00:43:06;;;;;;;10.33;7.37;;;3.00;99.90;;;;;;2251328;26;20656;-71
2024/04/19 00:44:07;;;;;;;10.43;7.97;;;3.00;99.90;;;;;;2245460;26;20586;-70
2024/04/19 00:45:38;;;;;;;11.45;8.00;;;3.00;99.90;;;;;;2244663;26;20724;-72
2024/04/19 00:46:38;;;;;;;11.52;7.03;;;3.00;99.90;;;;;;2233458;26;20295;-70
2024/04/19 00:47:39;;;;;;;11.57;8.27;;;2.90;99.90;;;;;;2232422;26;20880;-70
2024/04/19 00:48:40;;;;;;;13.00;8.23;;;2.90;99.90;;;;;;2244254;26;20308;-71
2024/04/19 00:49:43;;;;;;;9.95;6.88;;;2.80;99.90;;;;;;2229921;26;20307;-70
2024/04/19 00:50:45;;;;;;;12.60;8.70;;;2.80;99.90;;;;;;2248570;26;20322;-71
2024/04/19 00:51:45;;;;;;;11.68;7.93;;;2.80;99.90;;;;;;2243413;26;20263;-70
2024/04/19 00:52:46;;;;;;;11.23;7.47;;;2.80;99.90;;;;;;2253513;26;20717;-74
2024/04/19 00:53:47;;;;;;;10.20;7.63;;;2.80;99.90;;;;;;2238982;26;20353;-72
2024/04/19 00:54:48;;;;;;;14.47;8.47;;;2.80;99.90;;;;;;2238823;26;20274;-71
2024/04/19 00:55:50;;;;;;;11.98;8.35;;;2.80;99.90;;;;;;2251284;26;20267;-72
2024/04/19 00:56:51;;;;;;;10.68;7.35;;;2.90;99.90;;;;;;2238186;26;21052;-73
2024/04/19 00:57:52;;;;;;;10.15;6.50;;;2.90;99.90;;;;;;2247406;26;20266;-72
2024/04/19 00:58:53;;;;;;;12.68;9.23;;;3.00;99.90;;;;;;2229216;26;20272;-72
2024/04/19 00:59:54;;;;;;;9.77;7.32;;;3.00;99.90;;;;;;2222382;26;20627;-72
2024/04/19 01:01:00;;;;;;;11.23;7.63;;;3.00;99.90;;;;;;2229825;26;20250;-75
2024/04/19 01:02:02;;;;;;;10.40;7.45;;;3.00;99.90;;;;;;2231227;26;20791;-72
2024/04/19 01:03:02;;;;;;;12.88;8.23;;;3.00;99.90;;;;;;2236139;26;20300;-75
2024/04/19 01:04:03;;;;;;;11.93;7.77;;;3.00;99.90;;;;;;2251121;26;20234;-73
2024/04/19 01:05:04;;;;;;;13.53;9.03;;;3.00;99.90;;;;;;2242864;26;20410;-72
2024/04/19 01:06:05;;;;;;;12.50;7.97;;;3.00;99.90;;;;;;2245739;26;20357;-74
2024/04/19 01:07:06;;;;;;;8.90;5.87;;;2.90;99.90;;;;;;2246697;26;20278;-73
2024/04/19 01:08:06;;;;;;;10.60;7.80;;;2.80;99.90;;;;;;2247067;26;20269;-73
2024/04/19 01:09:07;;;;;;;12.50;7.53;;;2.70;99.90;;;;;;2250193;26;20576;-72
2024/04/19 01:10:08;;;;;;;10.90;7.67;;;2.70;99.90;;;;;;2245876;26;20243;-72
2024/04/19 01:11:09;;;;;;;13.73;8.80;;;2.70;99.90;;;;;;2233562;26;20231;-73
2024/04/19 01:12:10;;;;;;;12.17;8.43;;;2.70;99.90;;;;;;2241852;26;20358;-72
2024/04/19 01:13:12;;;;;;;13.87;8.37;;;2.70;99.90;;;;;;2243693;26;20236;-73
2024/04/19 01:14:13;;;;;;;13.38;7.78;;;2.80;99.90;;;;;;2247341;26;20339;-74
2024/04/19 01:15:22;;;;;;;11.25;8.27;;;2.70;99.90;;;;;;2244796;26;20290;-73
2024/04/19 01:16:24;;;;;;;11.38;8.23;;;2.80;99.90;;;;;;2250340;26;21013;-71
2024/04/19 01:17:24;;;;;;;10.50;7.00;;;2.80;99.90;;;;;;2231380;26;20268;-72
2024/04/19 01:18:25;;;;;;;12.00;6.57;;;2.70;99.90;;;;;;2224248;26;20262;-72
2024/04/19 01:19:25;;;;;;;12.70;9.03;;;2.80;99.90;;;;;;2234984;26;20314;-72
2024/04/19 01:20:26;;;;;;;11.80;8.00;;;2.80;99.90;;;;;;2250169;26;20886;-72
2024/04/19 01:21:28;;;;;;;11.67;8.67;;;2.70;99.90;;;;;;2247353;26;20383;-72
2024/04/19 01:22:29;;;;;;;12.95;8.18;;;2.80;99.90;;;;;;2250216;26;20270;-73
2024/04/19 01:23:29;;;;;;;11.13;7.93;;;2.80;99.90;;;;;;2236213;26;20265;-73
2024/04/19 01:24:45;;;;;;;12.57;7.73;;;2.80;99.90;;;;;;2236090;26;20346;-72
2024/04/19 01:25:47;;;;;;;11.55;7.93;;;2.70;99.90;;;;;;2237395;26;20271;-72
2024/04/19 01:26:48;;;;;;;12.30;7.88;;;2.70;99.90;;;;;;2243578;26;20641;-71
2024/04/19 01:27:49;;;;;;;10.47;7.20;;;2.60;99.90;;;;;;2246212;26;20282;-71
2024/04/19 01:28:49;;;;;;;12.93;8.23;;;2.60;99.90;;;;;;2242002;26;20279;-72
2024/04/19 01:29:50;;;;;;;11.03;7.90;;;2.50;99.90;;;;;;2242892;26;20318;-71
2024/04/19 01:30:51;;;;;;;12.17;8.30;;;2.50;99.90;;;;;;2245808;26;20293;-72
2024/04/19 01:31:51;;;;;;;9.03;6.13;;;2.50;99.90;;;;;;2243397;26;20372;-72
2024/04/19 01:32:52;;;;;;;11.63;7.70;;;2.40;99.90;;;;;;2233565;26;20339;-71
2024/04/19 01:33:53;;;;;;;10.73;7.73;;;2.40;99.90;;;;;;2206272;26;20335;-72
2024/04/19 01:34:54;;;;;;;10.10;7.90;;;2.40;99.90;;;;;;2234878;26;20654;-72
2024/04/19 01:35:55;;;;;;;10.82;7.60;;;2.40;99.90;;;;;;2244266;26;20272;-72
2024/04/19 01:36:56;;;;;;;10.70;7.10;;;2.40;99.90;;;;;;2242879;26;20265;-72
2024/04/19 01:37:57;;;;;;;12.05;7.75;;;2.40;99.90;;;;;;2244731;26;20307;-72
2024/04/19 01:38:57;;;;;;;10.67;7.90;;;2.40;99.90;;;;;;2249044;26;20645;-71
2024/04/19 01:39:58;;;;;;;12.57;7.90;;;2.40;99.90;;;;;;2243729;26;20724;-71
2024/04/19 01:40:59;;;;;;;12.10;7.97;;;2.40;99.90;;;;;;2248097;26;21154;-71
2024/04/19 01:41:59;;;;;;;11.60;7.93;;;2.40;99.90;;;;;;2229688;26;20270;-72
2024/04/19 01:43:00;;;;;;;12.77;9.13;;;2.40;99.90;;;;;;2234892;26;20711;-71
2024/04/19 01:44:01;;;;;;;10.13;7.53;;;2.50;99.90;;;;;;2234791;26;20292;-72
2024/04/19 01:45:02;;;;;;;10.27;7.13;;;2.50;99.90;;;;;;2220221;26;20245;-72
2024/04/19 01:46:03;;;;;;;11.93;7.97;;;2.50;99.90;;;;;;2220422;26;20309;-72
2024/04/19 01:47:04;;;;;;;10.40;8.07;;;2.50;99.90;;;;;;2220338;26;20283;-74
2024/04/19 01:48:05;;;;;;;10.90;7.80;;;2.50;99.90;;;;;;2235254;26;20243;-72
2024/04/19 01:49:07;;;;;;;11.30;8.70;;;2.50;99.90;;;;;;2248951;26;20231;-72
2024/04/19 01:50:08;;;;;;;14.43;8.73;;;2.50;99.90;;;;;;2251218;26;20239;-72
2024/04/19 01:51:08;;;;;;;10.83;7.83;;;2.40;99.90;;;;;;2244691;26;20221;-71
2024/04/19 01:52:09;;;;;;;10.47;7.47;;;2.50;99.90;;;;;;2243436;26;20232;-76
2024/04/19 01:53:10;;;;;;;12.20;8.30;;;2.50;99.90;;;;;;2244930;26;20274;-72
2024/04/19 01:54:10;;;;;;;11.33;7.07;;;2.40;99.90;;;;;;2250313;26;20717;-73
2024/04/19 01:55:11;;;;;;;12.30;8.10;;;2.40;99.90;;;;;;2235796;26;20283;-72
2024/04/19 01:56:12;;;;;;;13.33;8.37;;;2.40;99.90;;;;;;2243940;26;20621;-72
2024/04/19 01:57:13;;;;;;;13.53;7.90;;;2.40;99.90;;;;;;2247863;26;20261;-71
2024/04/19 01:58:13;;;;;;;10.37;7.13;;;2.40;99.90;;;;;;2243672;26;20452;-72
2024/04/19 01:59:14;;;;;;;10.73;7.87;;;2.40;99.90;;;;;;2244705;26;20348;-71
2024/04/19 02:00:15;;;;;;;11.53;8.13;;;2.30;99.90;;;;;;2243630;26;20340;-72
2024/04/19 02:01:16;;;;;;;10.27;7.27;;;2.40;99.90;;;;;;2243250;26;20276;-71
2024/04/19 02:02:17;;;;;;;10.10;7.10;;;2.40;99.90;;;;;;2243970;26;20320;-71
2024/04/19 02:03:18;;;;;;;13.43;8.02;;;2.40;99.90;;;;;;2236098;26;20818;-71
2024/04/19 02:04:19;;;;;;;13.07;8.50;;;2.30;99.90;;;;;;2235773;26;20270;-72
2024/04/19 02:05:20;;;;;;;10.90;7.33;;;2.40;99.90;;;;;;2221558;26;20309;-73
2024/04/19 02:06:20;;;;;;;10.90;7.97;;;2.40;99.90;;;;;;2236155;26;20629;-71
2024/04/19 02:07:21;;;;;;;13.27;8.97;;;2.50;99.90;;;;;;2258438;26;20281;-72
2024/04/19 02:08:22;;;;;;;11.70;8.60;;;2.40;99.90;;;;;;2243714;26;20327;-72
2024/04/19 02:09:22;;;;;;;11.13;7.47;;;2.50;99.90;;;;;;2220643;26;20830;-72
2024/04/19 02:10:23;;;;;;;12.83;8.90;;;2.50;99.90;;;;;;2207404;26;20269;-71
2024/04/19 02:11:24;;;;;;;10.87;8.00;;;2.50;99.90;;;;;;2221118;26;20310;-71
2024/04/19 02:12:24;;;;;;;15.07;9.47;;;2.40;99.90;;;;;;2237483;26;20259;-71
2024/04/19 02:13:25;;;;;;;12.47;8.60;;;2.40;99.90;;;;;;2228916;26;20267;-73
2024/04/19 02:14:26;;;;;;;13.37;8.77;;;2.50;99.90;;;;;;2236001;26;20280;-72
2024/04/19 02:15:27;;;;;;;15.17;8.47;;;2.40;99.90;;;;;;2236785;26;20811;-71
2024/04/19 02:16:27;;;;;;;12.50;8.17;;;2.50;99.90;;;;;;2244097;26;20266;-73
2024/04/19 02:17:28;;;;;;;12.40;8.23;;;2.40;99.90;;;;;;2251275;26;20838;-71
2024/04/19 02:18:29;;;;;;;13.67;8.30;;;2.50;99.90;;;;;;2228263;26;20265;-71
2024/04/19 02:19:35;;;;;;;14.00;8.23;;;2.50;99.90;;;;;;2235586;26;20332;-72
2024/04/19 02:20:36;;;;;;;13.50;8.25;;;2.50;99.90;;;;;;2235697;26;20306;-72
2024/04/19 02:21:37;;;;;;;13.03;8.43;;;2.50;99.90;;;;;;2237001;26;20312;-72
2024/04/19 02:22:38;;;;;;;12.00;8.27;;;2.50;99.90;;;;;;2228948;26;20314;-73
2024/04/19 02:23:38;;;;;;;13.20;8.07;;;2.50;99.90;;;;;;2236441;26;20272;-76
2024/04/19 02:24:39;;;;;;;11.57;8.57;;;2.60;99.90;;;;;;2251199;26;20271;-72
2024/04/19 02:25:40;;;;;;;11.70;8.37;;;2.60;99.90;;;;;;2251571;26;20665;-73
2024/04/19 02:26:40;;;;;;;10.37;7.43;;;2.60;99.90;;;;;;2251308;26;20271;-72
2024/04/19 02:31:39;;;;;;;12.02;8.05;;;2.80;99.90;;;;;;2246486;26;20274;-71
2024/04/19 02:32:40;;;;;;;13.77;9.07;;;2.80;99.90;;;;;;2229194;26;20280;-72
2024/04/19 02:33:41;;;;;;;13.77;9.47;;;2.80;99.90;;;;;;2221483;26;20272;-71
2024/04/19 02:34:42;;;;;;;15.47;9.33;;;2.80;99.90;;;;;;2235404;26;20397;-73
2024/04/19 02:35:43;;;;;;;13.88;7.97;;;2.80;99.90;;;;;;2252752;26;20270;-71
2024/04/19 02:36:44;;;;;;;11.33;8.00;;;2.90;99.90;;;;;;2250947;26;20271;-71
2024/04/19 02:37:44;;;;;;;10.90;7.20;;;2.80;99.90;;;;;;2251002;26;20271;-72
2024/04/19 02:38:45;;;;;;;13.77;9.17;;;2.80;99.90;;;;;;2247583;26;20271;-71
2024/04/19 02:39:46;;;;;;;11.23;7.47;;;2.80;99.90;;;;;;2231599;26;20788;-71
2024/04/19 02:40:46;;;;;;;10.17;7.07;;;2.80;99.90;;;;;;2246623;26;20353;-72
2024/04/19 02:41:48;;;;;;;11.33;7.83;;;2.90;99.90;;;;;;2243028;26;20679;-71
2024/04/19 02:42:48;;;;;;;10.77;7.80;;;3.00;99.90;;;;;;2233435;26;20326;-71
2024/04/19 02:43:49;;;;;;;9.50;6.60;;;3.00;99.90;;;;;;2250997;26;20808;-71
2024/04/19 02:44:50;;;;;;;12.50;9.07;;;3.00;99.90;;;;;;2241109;26;20280;-72
2024/04/19 02:45:50;;;;;;;12.17;8.07;;;3.00;99.90;;;;;;2243173;26;20318;-71
2024/04/19 02:46:51;;;;;;;13.40;8.67;;;3.00;99.90;;;;;;2249213;26;20403;-71
2024/04/19 02:47:52;;;;;;;11.37;8.77;;;3.00;99.90;;;;;;2243006;26;20269;-72
2024/04/19 02:48:53;;;;;;;11.43;7.80;;;3.00;99.90;;;;;;2243399;26;20271;-71
2024/04/19 02:49:53;;;;;;;9.70;6.87;;;3.00;99.90;;;;;;2252050;26;20301;-72
2024/04/19 02:50:54;;;;;;;11.33;8.47;;;3.00;99.90;;;;;;2242434;26;20301;-71
2024/04/19 02:51:55;;;;;;;10.30;7.57;;;3.00;99.90;;;;;;2242303;26;20266;-71
2024/04/19 02:52:55;;;;;;;10.10;7.17;;;3.00;99.90;;;;;;2235713;26;20272;-70
2024/04/19 02:53:56;;;;;;;11.50;7.97;;;3.10;99.90;;;;;;2246479;26;20738;-72
2024/04/19 02:54:57;;;;;;;11.63;8.37;;;3.10;99.90;;;;;;2245070;26;20277;-70
2024/04/19 02:55:58;;;;;;;12.33;8.73;;;3.10;99.90;;;;;;2242270;26;20271;-71
2024/04/19 02:56:59;;;;;;;13.02;8.52;;;3.20;99.90;;;;;;2243945;26;20325;-71
2024/04/19 02:57:59;;;;;;;11.83;8.00;;;3.30;99.90;;;;;;2234507;26;20278;-71
2024/04/19 02:59:01;;;;;;;11.63;8.53;;;3.20;99.90;;;;;;2234451;26;20268;-72
2024/04/19 03:00:03;;;;;;;14.05;8.48;;;3.20;99.90;;;;;;2244689;26;20247;-73
2024/04/19 03:01:04;;;;;;;14.25;8.52;;;3.30;99.90;;;;;;2242443;26;21150;-71
2024/04/19 03:02:05;;;;;;;13.82;8.35;;;3.30;99.90;;;;;;2262230;26;20268;-71
2024/04/19 03:03:06;;;;;;;12.17;8.20;;;3.30;99.90;;;;;;2244899;26;20236;-71
2024/04/19 03:04:07;;;;;;;12.93;7.90;;;3.30;99.90;;;;;;2244206;26;20671;-71
2024/04/19 03:05:07;;;;;;;12.03;8.47;;;3.20;99.90;;;;;;2252067;26;20798;-71
2024/04/19 03:06:08;;;;;;;9.00;6.90;;;3.10;99.90;;;;;;2261261;26;20284;-71
2024/04/19 03:07:09;;;;;;;10.07;6.90;;;3.00;99.90;;;;;;2256190;26;20376;-71
2024/04/19 03:08:09;;;;;;;10.90;7.33;;;3.00;99.90;;;;;;2246129;26;20233;-71
2024/04/19 03:09:10;;;;;;;10.50;7.60;;;3.00;99.90;;;;;;2245249;26;20852;-71
2024/04/19 03:10:11;;;;;;;11.27;7.30;;;3.10;99.90;;;;;;2252836;26;20331;-72
2024/04/19 03:11:11;;;;;;;10.13;6.77;;;3.00;99.90;;;;;;2251477;26;20262;-72
2024/04/19 03:12:12;;;;;;;9.23;6.70;;;3.00;99.90;;;;;;2237368;26;20282;-72
2024/04/19 03:13:13;;;;;;;11.70;8.13;;;3.00;99.90;;;;;;2234044;26;20763;-72
2024/04/19 03:14:14;;;;;;;11.07;7.30;;;3.00;99.90;;;;;;2244996;26;20692;-71
2024/04/19 03:15:14;;;;;;;11.23;7.77;;;2.90;99.90;;;;;;2242354;26;20344;-72
2024/04/19 03:16:15;;;;;;;11.57;8.07;;;2.90;99.90;;;;;;2244989;26;20235;-71
2024/04/19 03:17:16;;;;;;;7.67;5.93;;;3.00;99.90;;;;;;2245006;26;20244;-71
2024/04/19 03:18:17;;;;;;;10.00;7.10;;;3.00;99.90;;;;;;2241587;26;20336;-71
2024/04/19 03:19:18;;;;;;;10.23;6.70;;;3.00;99.90;;;;;;2249331;26;20611;-71
2024/04/19 03:20:19;;;;;;;10.83;7.43;;;3.00;99.90;;;;;;2247288;26;20277;-70
2024/04/19 03:21:19;;;;;;;8.73;6.47;;;3.00;99.90;;;;;;2238231;26;20281;-72
2024/04/19 03:22:20;;;;;;;8.73;6.50;;;3.10;99.90;;;;;;2244016;26;20576;-70
2024/04/19 03:23:21;;;;;;;8.20;6.33;;;3.00;99.90;;;;;;2243018;26;20720;-71
2024/04/19 03:24:21;;;;;;;10.63;7.80;;;3.10;99.90;;;;;;2236303;26;20282;-70
2024/04/19 03:25:22;;;;;;;8.57;6.40;;;3.10;99.90;;;;;;2250621;26;20279;-71
2024/04/19 03:26:24;;;;;;;10.20;6.83;;;3.10;99.90;;;;;;2258369;26;20296;-71
2024/04/19 03:27:24;;;;;;;9.98;6.53;;;3.10;99.90;;;;;;2258609;26;20305;-71
2024/04/19 03:28:25;;;;;;;11.27;6.53;;;3.10;99.90;;;;;;2250844;26;20310;-71
2024/04/19 03:29:26;;;;;;;10.50;5.97;;;3.10;99.90;;;;;;2234795;26;20280;-71
2024/04/19 03:30:36;;;;;;;9.93;7.10;;;3.10;99.90;;;;;;2238086;26;20299;-72
2024/04/19 03:31:37;;;;;;;8.77;6.00;;;3.20;99.90;;;;;;2231556;26;20293;-72
2024/04/19 03:32:38;;;;;;;8.87;6.43;;;3.10;99.90;;;;;;2243798;26;20329;-70
2024/04/19 03:33:38;;;;;;;10.57;7.60;;;3.10;99.90;;;;;;2244794;26;20275;-71
2024/04/19 03:34:42;;;;;;;10.93;7.63;;;3.10;99.90;;;;;;2243970;26;20264;-71
2024/04/19 03:35:43;;;;;;;11.32;8.82;;;3.10;99.90;;;;;;2250986;26;20270;-71
2024/04/19 03:36:43;;;;;;;9.53;7.33;;;3.20;99.90;;;;;;2229784;26;20311;-71
2024/04/19 03:37:44;;;;;;;8.20;6.07;;;3.20;99.90;;;;;;2235650;26;20273;-72
2024/04/19 03:38:46;;;;;;;9.37;6.60;;;3.20;99.90;;;;;;2248783;26;20267;-71
2024/04/19 03:39:47;;;;;;;9.93;8.18;;;3.20;99.90;;;;;;2243380;26;20378;-71
2024/04/19 03:40:54;;;;;;;11.60;7.33;;;3.20;99.90;;;;;;2243508;26;20375;-70
2024/04/19 03:41:56;;;;;;;9.70;7.05;;;3.20;99.90;;;;;;2249391;26;20351;-71
2024/04/19 03:42:58;;;;;;;9.95;7.10;;;3.20;99.90;;;;;;2251493;26;20267;-71
2024/04/19 03:45:40;;;;;;;10.38;6.57;;;3.10;99.90;;;;;;2231167;26;21131;-71
2024/04/19 03:46:41;;;;;;;10.95;7.43;;;3.00;99.90;;;;;;2243026;26;20259;-72
2024/04/19 03:47:41;;;;;;;9.57;6.23;;;3.10;99.90;;;;;;2242595;26;20627;-71
2024/04/19 03:48:42;;;;;;;8.07;6.07;;;3.10;99.90;;;;;;2242444;26;20270;-71
2024/04/19 03:49:43;;;;;;;8.70;6.40;;;3.10;99.90;;;;;;2242259;26;20270;-70
2024/04/19 03:50:45;;;;;;;8.20;6.03;;;3.00;99.90;;;;;;2231445;26;20270;-71
2024/04/19 03:51:46;;;;;;;10.98;6.88;;;2.90;99.90;;;;;;2236011;26;20271;-71
2024/04/19 03:52:47;;;;;;;9.70;6.60;;;2.90;99.90;;;;;;2235356;26;20280;-70
2024/04/19 03:53:48;;;;;;;9.00;6.37;;;2.80;99.90;;;;;;2235327;26;20377;-71
2024/04/19 03:54:48;;;;;;;9.80;6.10;;;2.80;99.90;;;;;;2235210;26;20760;-71
2024/04/19 03:55:49;;;;;;;9.40;6.83;;;2.80;99.90;;;;;;2243381;26;20359;-72
2024/04/19 03:56:50;;;;;;;9.10;6.20;;;2.80;99.90;;;;;;2250570;26;20848;-71
2024/04/19 03:57:50;;;;;;;8.73;6.73;;;2.70;99.90;;;;;;2228189;26;20725;-70
2024/04/19 03:58:52;;;;;;;10.80;7.37;;;2.70;99.90;;;;;;2234011;26;20313;-72
2024/04/19 03:59:52;;;;;;;11.82;7.20;;;2.70;99.90;;;;;;2248636;26;20608;-71
2024/04/19 04:00:54;;;;;;;9.47;7.33;;;2.70;99.90;;;;;;2249741;26;20263;-70
2024/04/19 04:01:55;;;;;;;11.02;7.88;;;2.70;99.90;;;;;;2229207;26;20264;-70
2024/04/19 04:02:56;;;;;;;8.80;6.20;;;2.60;99.90;;;;;;2248419;26;20379;-71
2024/04/19 04:03:57;;;;;;;9.40;5.60;;;2.50;99.90;;;;;;2249266;26;20657;-70
2024/04/19 04:04:58;;;;;;;10.00;6.25;;;2.50;99.90;;;;;;2244226;26;20711;-71
2024/04/19 04:05:59;;;;;;;9.47;6.80;;;2.60;99.90;;;;;;2242932;26;20362;-71
2024/04/19 04:07:00;;;;;;;8.53;6.10;;;2.60;99.90;;;;;;2243044;26;20271;-71
2024/04/19 04:08:00;;;;;;;8.50;6.40;;;2.50;99.90;;;;;;2243483;26;20310;-70
2024/04/19 04:09:01;;;;;;;8.33;6.10;;;2.50;99.90;;;;;;2243357;26;20764;-70
2024/04/19 04:10:02;;;;;;;8.07;6.10;;;2.50;99.90;;;;;;2243048;26;20250;-71
2024/04/19 04:11:03;;;;;;;7.50;5.70;;;2.60;99.90;;;;;;2244404;26;20630;-72
2024/04/19 04:12:04;;;;;;;8.10;5.67;;;2.60;99.90;;;;;;2243893;26;20232;-71
2024/04/19 04:13:04;;;;;;;8.90;6.10;;;2.60;99.90;;;;;;2243183;26;20240;-71
2024/04/19 04:14:05;;;;;;;8.03;6.07;;;2.60;99.90;;;;;;2245678;26;20231;-71
2024/04/19 04:15:07;;;;;;;8.13;6.07;;;2.60;99.90;;;;;;2244124;26;20296;-73
2024/04/19 04:16:08;;;;;;;9.70;7.15;;;2.60;99.90;;;;;;2250533;26;20301;-71
2024/04/19 04:17:10;;;;;;;7.20;5.50;;;2.70;99.90;;;;;;2230944;26;20239;-70
2024/04/19 04:18:11;;;;;;;8.13;5.45;;;2.70;99.90;;;;;;2236393;26;20228;-71
2024/04/19 04:19:12;;;;;;;7.18;5.25;;;2.70;99.90;;;;;;2241748;26;20236;-71
2024/04/19 04:20:13;;;;;;;9.70;6.27;;;2.70;99.90;;;;;;2245479;26;20239;-70
2024/04/19 04:21:13;;;;;;;8.37;5.53;;;2.80;99.90;;;;;;2234971;26;20382;-71
2024/04/19 04:22:14;;;;;;;9.97;6.93;;;2.80;99.90;;;;;;2235110;26;20291;-70
2024/04/19 04:23:15;;;;;;;9.83;6.53;;;2.80;99.90;;;;;;2234883;26;20324;-71
2024/04/19 04:24:16;;;;;;;9.67;5.93;;;2.80;99.90;;;;;;2250863;26;20812;-71
2024/04/19 04:25:16;;;;;;;9.83;7.07;;;2.90;99.90;;;;;;2244987;26;20278;-71
2024/04/19 04:26:17;;;;;;;12.53;7.03;;;2.80;99.90;;;;;;2248789;26;20234;-71
2024/04/19 04:27:18;;;;;;;9.20;6.27;;;2.80;99.90;;;;;;2243780;26;20252;-72
2024/04/19 04:28:18;;;;;;;9.63;6.40;;;2.80;99.90;;;;;;2235970;26;20586;-71
2024/04/19 04:29:19;;;;;;;7.87;5.20;;;2.90;99.90;;;;;;2220132;26;20315;-71
2024/04/19 04:30:20;;;;;;;7.63;5.43;;;2.90;99.90;;;;;;2227472;26;20715;-71
2024/04/19 04:31:20;;;;;;;7.97;6.00;;;2.80;99.90;;;;;;2233039;26;20324;-71
2024/04/19 04:32:22;;;;;;;7.67;5.87;;;2.80;99.90;;;;;;2235320;26;20322;-71
2024/04/19 04:33:22;;;;;;;7.28;4.82;;;2.70;99.90;;;;;;2250016;26;20266;-70
2024/04/19 04:34:23;;;;;;;7.30;5.57;;;2.70;99.90;;;;;;2242491;26;20271;-70
2024/04/19 04:35:24;;;;;;;8.00;5.75;;;2.70;99.90;;;;;;2236155;26;20394;-70
2024/04/19 04:36:25;;;;;;;7.70;5.50;;;2.60;99.90;;;;;;2235643;26;20349;-70
2024/04/19 04:37:26;;;;;;;7.70;5.30;;;2.60;99.90;;;;;;2229350;26;20823;-71
2024/04/19 04:38:26;;;;;;;9.00;5.60;;;2.50;99.90;;;;;;2243245;26;20293;-71
2024/04/19 04:39:27;;;;;;;7.77;5.63;;;2.50;99.90;;;;;;2250544;26;20368;-70
2024/04/19 04:40:28;;;;;;;9.17;5.93;;;2.70;99.90;;;;;;2245427;26;20271;-72
2024/04/19 04:41:29;;;;;;;8.15;6.30;;;2.60;99.90;;;;;;2250146;26;20293;-70
2024/04/19 04:42:30;;;;;;;8.30;5.60;;;2.60;99.90;;;;;;2234856;26;20809;-70
2024/04/19 04:43:31;;;;;;;8.60;6.13;;;2.60;99.90;;;;;;2235642;26;20627;-69
2024/04/19 04:44:32;;;;;;;7.30;4.90;;;2.60;99.90;;;;;;2250840;26;20278;-69
2024/04/19 04:45:33;;;;;;;8.52;5.55;;;2.60;99.90;;;;;;2251197;26;20316;-70
2024/04/19 04:46:37;;;;;;;8.03;5.37;;;2.50;99.90;;;;;;2243888;26;20305;-69
2024/04/19 04:47:37;;;;;;;8.52;5.45;;;2.50;99.90;;;;;;2250226;26;20595;-69
2024/04/19 04:48:38;;;;;;;9.80;5.17;;;2.60;99.90;;;;;;2251187;26;20339;-69
2024/04/19 04:49:39;;;;;;;6.73;4.50;;;2.60;99.90;;;;;;2249196;26;20922;-69
2024/04/19 04:50:40;;;;;;;7.43;5.17;;;2.60;99.90;;;;;;2243248;26;20640;-70
2024/04/19 04:51:41;;;;;;;8.77;5.80;;;2.70;99.90;;;;;;2251206;26;20271;-69
2024/04/19 04:52:41;;;;;;;9.83;5.20;;;2.80;99.90;;;;;;2242903;26;20832;-69
2024/04/19 04:53:42;;;;;;;8.73;5.97;;;2.80;99.90;;;;;;2242983;26;20365;-69
2024/04/19 04:54:43;;;;;;;8.27;6.40;;;2.90;99.90;;;;;;2242669;26;20271;-69
2024/04/19 04:55:44;;;;;;;8.20;5.93;;;3.00;99.90;;;;;;2246567;26;20604;-70
2024/04/19 04:56:44;;;;;;;8.43;6.13;;;3.10;99.90;;;;;;2247801;26;20271;-70
2024/04/19 04:57:45;;;;;;;8.40;5.67;;;3.10;99.90;;;;;;2243932;26;20263;-69
2024/04/19 04:58:46;;;;;;;10.20;6.87;;;3.10;99.90;;;;;;2246345;26;20262;-69
2024/04/19 04:59:46;;;;;;;10.93;5.57;;;3.30;99.90;;;;;;2249078;26;20267;-69
2024/04/19 05:00:47;;;;;;;8.73;6.40;;;3.30;99.90;;;;;;2246880;26;20610;-69
2024/04/19 05:01:48;;;;;;;7.68;5.18;;;3.40;99.90;;;;;;2243033;26;20270;-70
2024/04/19 05:02:49;;;;;;;7.30;5.40;;;3.40;99.90;;;;;;2249770;26;21215;-69
2024/04/19 05:03:50;;;;;;;8.93;6.20;;;3.40;99.90;;;;;;2243895;26;20309;-69
2024/04/19 05:04:50;;;;;;;10.13;6.40;;;3.50;99.90;;;;;;2244521;26;20360;-71
2024/04/19 05:05:51;;;;;;;7.40;5.80;;;3.50;99.90;;;;;;2243946;26;20307;-69
2024/04/19 05:06:55;;;;;;;8.57;6.10;;;3.60;99.90;;;;;;2235829;26;20374;-69
2024/04/19 05:07:56;;;;;;;9.40;5.45;;;3.60;99.90;;;;;;2244760;26;20308;-70
2024/04/19 05:08:57;;;;;;;8.73;5.65;;;3.60;99.90;;;;;;2245220;26;20326;-70
2024/04/19 05:09:57;;;;;;;13.30;6.13;;;3.60;99.90;;;;;;2248822;26;20740;-70
2024/04/19 05:10:58;;;;;;;7.27;5.53;;;3.60;99.90;;;;;;2244331;26;20338;-70
2024/04/19 05:11:59;;;;;;;7.70;5.37;;;3.60;99.90;;;;;;2244530;26;20260;-70
2024/04/19 05:12:59;;;;;;;7.03;4.37;;;3.70;99.90;;;;;;2244281;26;20347;-69
2024/04/19 05:14:00;;;;;;;6.50;4.73;;;3.70;99.90;;;;;;2245318;26;20378;-69
2024/04/19 05:15:01;;;;;;;6.47;5.07;;;3.70;99.60;;;;;;2243153;26;20251;-70
2024/04/19 05:16:02;;;;;;;7.73;5.43;;;3.60;99.70;;;;;;2248703;26;20269;-69
2024/04/19 05:17:03;;;;;;;8.82;6.72;;;3.60;99.40;;;;;;2246746;26;20234;-71
2024/04/19 05:18:04;;;;;;;11.87;7.93;;;3.60;99.80;;;;;;2248117;26;20777;-70
2024/04/19 05:19:05;;;;;;;10.55;6.57;;;3.60;99.90;;;;;;2244229;26;20333;-71
2024/04/19 05:20:06;;;;;;;8.77;5.27;;;3.70;99.80;;;;;;2249268;26;20317;-70
2024/04/19 05:21:08;;;;;;;6.10;4.70;;;3.70;99.90;;;;;;2245253;26;20345;-70
2024/04/19 05:22:08;;;;;;;6.65;4.32;;;3.70;99.70;;;;;;2243095;26;20349;-69
2024/04/19 05:23:09;;;;;;;6.40;4.73;;;3.70;99.10;;;;;;2236644;26;20266;-69
2024/04/19 05:24:10;;;;;;;7.00;4.70;;;3.70;99.10;;;;;;2231268;26;20241;-69
2024/04/19 05:25:11;;;;;;;7.53;5.13;;;3.60;99.20;;;;;;2246623;26;20582;-69